createdAt,value
2024-02-17T00:00:27.708Z,13.34
2024-02-17T00:02:56.053Z,13.31
2024-02-17T00:05:24.063Z,13.32
2024-02-17T00:07:53.966Z,13.34
2024-02-17T00:10:22.127Z,13.25
2024-02-17T00:12:50.204Z,13.07
2024-02-17T00:15:19.643Z,13.00
2024-02-17T00:17:47.756Z,12.97
2024-02-17T00:20:16.224Z,12.96
2024-02-17T00:22:44.530Z,12.84
2024-02-17T00:25:12.419Z,12.65
2024-02-17T00:27:40.341Z,12.69
2024-02-17T00:30:10.203Z,12.61
2024-02-17T00:32:39.490Z,12.59
2024-02-17T00:35:07.779Z,12.49
2024-02-17T00:37:35.704Z,12.32
2024-02-17T00:40:06.641Z,12.40
2024-02-17T00:42:34.571Z,12.40
2024-02-17T00:45:02.565Z,12.46
2024-02-17T00:47:30.466Z,12.36
2024-02-17T00:49:59.886Z,12.38
2024-02-17T00:52:27.864Z,12.37
2024-02-17T00:54:55.793Z,12.28
2024-02-17T00:57:23.698Z,12.19
2024-02-17T00:59:51.730Z,12.15
2024-02-17T01:02:19.622Z,12.16
2024-02-17T01:04:47.602Z,12.15
2024-02-17T01:07:17.011Z,11.98
2024-02-17T01:09:44.949Z,11.93
2024-02-17T01:12:12.959Z,11.85
2024-02-17T01:14:40.980Z,11.84
2024-02-17T01:17:08.940Z,11.99
2024-02-17T01:19:37.015Z,11.87
2024-02-17T01:22:05.041Z,11.78
2024-02-17T01:24:34.366Z,11.82
2024-02-17T01:27:02.335Z,11.81
2024-02-17T01:29:30.349Z,11.76
2024-02-17T01:31:58.612Z,11.73
2024-02-17T01:34:26.825Z,11.80
2024-02-17T01:36:54.869Z,11.69
2024-02-17T01:39:24.481Z,11.64
2024-02-17T01:41:53.772Z,11.70
2024-02-17T01:44:21.937Z,11.76
2024-02-17T01:46:53.009Z,11.77
2024-02-17T01:49:21.524Z,11.77
2024-02-17T01:51:49.974Z,11.81
2024-02-17T01:54:19.206Z,11.87
2024-02-17T01:56:48.559Z,11.77
2024-02-17T01:59:18.399Z,11.77
2024-02-17T02:01:47.748Z,11.74
2024-02-17T02:04:16.042Z,11.61
2024-02-17T02:06:44.292Z,11.63
2024-02-17T02:09:12.421Z,11.48
2024-02-17T02:11:42.033Z,11.40
2024-02-17T02:14:18.148Z,11.43
2024-02-17T02:16:47.092Z,11.35
2024-02-17T02:19:16.413Z,11.24
2024-02-17T02:21:45.542Z,11.18
2024-02-17T02:24:13.632Z,11.07
2024-02-17T02:26:43.190Z,11.04
2024-02-17T02:29:11.056Z,11.08
2024-02-17T02:31:39.225Z,11.14
2024-02-17T02:34:07.406Z,11.21
2024-02-17T02:36:35.347Z,11.10
2024-02-17T02:39:03.447Z,11.14
2024-02-17T02:41:31.437Z,11.19
2024-02-17T02:44:00.800Z,11.08
2024-02-17T02:46:31.489Z,10.94
2024-02-17T02:48:59.438Z,10.98
2024-02-17T02:51:27.429Z,10.96
2024-02-17T02:53:55.466Z,10.99
2024-02-17T02:56:23.428Z,11.00
2024-02-17T02:58:51.347Z,11.07
2024-02-17T03:01:20.774Z,11.16
2024-02-17T03:03:50.307Z,11.11
2024-02-17T03:06:18.528Z,11.02
2024-02-17T03:08:46.557Z,10.90
2024-02-17T03:11:16.696Z,10.98
2024-02-17T03:13:44.679Z,10.99
2024-02-17T03:16:12.619Z,10.94
2024-02-17T03:18:42.023Z,10.73
2024-02-17T03:21:10.030Z,10.54
2024-02-17T03:23:38.157Z,10.45
2024-02-17T03:26:06.547Z,10.39
2024-02-17T03:28:34.509Z,10.19
2024-02-17T03:31:02.458Z,10.20
2024-02-17T03:33:30.675Z,10.18
2024-02-17T03:36:00.084Z,10.01
2024-02-17T03:38:28.107Z,9.94
2024-02-17T03:40:56.036Z,10.01
2024-02-17T03:43:23.877Z,10.05
2024-02-17T03:45:52.034Z,10.07
2024-02-17T03:48:21.001Z,10.18
2024-02-17T03:50:51.429Z,10.06
2024-02-17T03:53:21.121Z,10.13
2024-02-17T03:55:49.303Z,10.26
2024-02-17T03:58:17.208Z,10.21
2024-02-17T04:00:45.197Z,10.16
2024-02-17T04:03:13.111Z,10.02
2024-02-17T04:05:41.158Z,9.91
2024-02-17T04:08:09.038Z,10.00
2024-02-17T04:10:39.650Z,10.10
2024-02-17T04:13:07.795Z,9.91
2024-02-17T04:15:36.107Z,9.82
2024-02-17T04:18:08.113Z,9.85
2024-02-17T04:20:38.254Z,9.89
2024-02-17T04:23:06.795Z,9.93
2024-02-17T04:25:36.834Z,9.96
2024-02-17T04:28:08.020Z,9.97
2024-02-17T04:30:36.681Z,9.93
2024-02-17T04:33:05.095Z,9.91
2024-02-17T04:35:33.212Z,9.94
2024-02-17T04:38:01.340Z,10.00
2024-02-17T04:40:29.344Z,9.93
2024-02-17T04:42:58.176Z,9.73
2024-02-17T04:45:28.193Z,9.76
2024-02-17T04:47:56.095Z,9.63
2024-02-17T04:50:24.061Z,9.45
2024-02-17T04:52:52.088Z,9.37
2024-02-17T04:55:20.013Z,9.27
2024-02-17T04:57:48.029Z,9.40
2024-02-17T05:00:16.580Z,9.46
2024-02-17T05:02:45.933Z,9.43
2024-02-17T05:05:17.204Z,9.35
2024-02-17T05:07:45.739Z,9.17
2024-02-17T05:10:13.733Z,9.06
2024-02-17T05:12:42.025Z,9.06
2024-02-17T05:15:10.748Z,9.09
2024-02-17T05:17:38.690Z,8.98
2024-02-17T05:20:09.274Z,9.09
2024-02-17T05:22:37.974Z,9.06
2024-02-17T05:25:06.787Z,9.11
2024-02-17T05:27:34.753Z,9.11
2024-02-17T05:30:02.595Z,8.95
2024-02-17T05:32:30.580Z,8.98
2024-02-17T05:34:59.720Z,8.93
2024-02-17T05:37:29.165Z,8.92
2024-02-17T05:39:57.017Z,8.94
2024-02-17T05:42:25.470Z,8.94
2024-02-17T05:44:53.278Z,8.78
2024-02-17T05:47:21.168Z,8.84
2024-02-17T05:49:49.174Z,8.87
2024-02-17T05:52:17.495Z,8.78
2024-02-17T05:54:47.114Z,8.80
2024-02-17T05:57:15.164Z,8.69
2024-02-17T05:59:43.023Z,8.73
2024-02-17T06:02:10.836Z,8.66
2024-02-17T06:04:38.876Z,8.68
2024-02-17T06:07:06.821Z,8.72
2024-02-17T06:09:34.772Z,8.72
2024-02-17T06:12:04.323Z,8.82
2024-02-17T06:14:32.150Z,8.87
2024-02-17T06:17:00.016Z,8.89
2024-02-17T06:19:45.421Z,8.93
2024-02-17T06:22:13.353Z,9.08
2024-02-17T06:24:41.738Z,9.05
2024-02-17T06:27:12.154Z,9.12
2024-02-17T06:29:40.569Z,9.01
2024-02-17T06:32:08.409Z,9.02
2024-02-17T06:34:36.495Z,8.99
2024-02-17T06:37:05.163Z,9.06
2024-02-17T06:39:33.131Z,9.18
2024-02-17T06:42:00.999Z,9.32
2024-02-17T06:44:30.240Z,9.39
2024-02-17T06:46:58.183Z,9.40
2024-02-17T06:49:26.626Z,9.20
2024-02-17T06:51:55.687Z,9.25
2024-02-17T06:54:23.801Z,9.29
2024-02-17T06:56:51.780Z,9.21
2024-02-17T06:59:19.673Z,9.25
2024-02-17T07:01:50.000Z,9.30
2024-02-17T07:04:17.994Z,9.21
2024-02-17T07:06:46.091Z,9.32
2024-02-17T07:09:18.234Z,9.41
2024-02-17T07:11:46.243Z,9.38
2024-02-17T07:14:14.332Z,9.41
2024-02-17T07:16:42.379Z,9.53
2024-02-17T07:19:11.797Z,9.52
2024-02-17T07:21:39.736Z,9.57
2024-02-17T07:24:08.314Z,9.47
2024-02-17T07:26:36.408Z,9.46
2024-02-17T07:29:04.257Z,9.44
2024-02-17T07:31:40.051Z,9.45
2024-02-17T07:34:08.190Z,9.55
2024-02-17T07:36:37.632Z,9.47
2024-02-17T07:39:06.163Z,9.47
2024-02-17T07:41:34.110Z,9.42
2024-02-17T07:44:01.953Z,9.58
2024-02-17T07:46:29.836Z,9.67
2024-02-17T07:48:57.876Z,9.68
2024-02-17T07:51:25.848Z,9.61
2024-02-17T07:53:56.500Z,9.66
2024-02-17T07:56:25.548Z,9.58
2024-02-17T07:58:53.376Z,9.59
2024-02-17T08:01:21.575Z,9.69
2024-02-17T08:03:50.363Z,9.65
2024-02-17T08:06:20.694Z,9.56
2024-02-17T08:08:49.017Z,9.64
2024-02-17T08:11:18.751Z,9.60
2024-02-17T08:13:46.688Z,9.52
2024-02-17T08:16:13.927Z,9.47
2024-02-17T08:18:44.308Z,9.57
2024-02-17T08:21:12.796Z,9.73
2024-02-17T08:23:43.203Z,9.68
2024-02-17T08:26:12.387Z,9.57
2024-02-17T08:28:41.605Z,9.36
2024-02-17T08:31:09.629Z,9.43
2024-02-17T08:33:38.001Z,9.46
2024-02-17T08:36:06.375Z,9.32
2024-02-17T08:38:34.726Z,9.56
2024-02-17T08:41:05.045Z,9.63
2024-02-17T08:43:33.005Z,9.55
2024-02-17T08:46:02.522Z,9.58
2024-02-17T08:48:30.568Z,9.49
2024-02-17T08:50:58.578Z,9.58
2024-02-17T08:53:26.455Z,9.62
2024-02-17T08:55:55.006Z,9.58
2024-02-17T08:58:23.086Z,9.73
2024-02-17T09:00:51.211Z,9.89
2024-02-17T09:03:20.654Z,9.84
2024-02-17T09:05:48.895Z,9.95
2024-02-17T09:08:17.338Z,9.77
2024-02-17T09:10:45.352Z,9.93
2024-02-17T09:13:13.649Z,9.91
2024-02-17T09:15:40.879Z,10.00
2024-02-17T09:18:09.337Z,9.95
2024-02-17T09:20:38.893Z,10.00
2024-02-17T09:23:07.247Z,10.09
2024-02-17T09:25:36.027Z,9.86
2024-02-17T09:28:04.101Z,10.00
2024-02-17T09:30:35.525Z,10.01
2024-02-17T09:33:04.318Z,9.90
2024-02-17T09:35:32.404Z,9.96
2024-02-17T09:38:01.733Z,10.02
2024-02-17T09:40:29.736Z,10.10
2024-02-17T09:42:57.687Z,10.13
2024-02-17T09:45:27.556Z,10.06
2024-02-17T09:47:56.994Z,10.03
2024-02-17T09:50:25.480Z,9.97
2024-02-17T09:52:56.119Z,10.12
2024-02-17T09:55:26.351Z,10.39
2024-02-17T09:57:55.716Z,10.53
2024-02-17T10:00:24.387Z,10.52
2024-02-17T10:02:53.267Z,10.37
2024-02-17T10:05:22.328Z,10.35
2024-02-17T10:07:51.328Z,10.26
2024-02-17T10:10:20.356Z,10.28
2024-02-17T10:12:51.851Z,10.32
2024-02-17T10:15:21.594Z,10.45
2024-02-17T10:17:50.722Z,10.66
2024-02-17T10:20:18.834Z,10.63
2024-02-17T10:22:47.889Z,10.75
2024-02-17T10:25:21.054Z,11.04
2024-02-17T10:27:52.561Z,10.99
2024-02-17T10:30:22.149Z,11.07
2024-02-17T10:32:50.395Z,11.13
2024-02-17T10:35:18.677Z,11.03
2024-02-17T10:37:50.708Z,11.14
2024-02-17T10:40:18.996Z,11.32
2024-02-17T10:42:49.760Z,11.18
2024-02-17T10:45:19.643Z,11.18
2024-02-17T10:47:49.011Z,11.10
2024-02-17T10:50:19.083Z,10.93
2024-02-17T10:52:48.428Z,10.90
2024-02-17T10:55:17.125Z,10.70
2024-02-17T10:57:59.493Z,10.88
2024-02-17T11:00:29.815Z,10.91
2024-02-17T11:03:04.554Z,10.81
2024-02-17T11:05:36.359Z,10.96
2024-02-17T11:08:05.250Z,11.18
2024-02-17T11:10:34.304Z,11.15
2024-02-17T11:13:04.200Z,10.99
2024-02-17T11:15:36.074Z,11.21
2024-02-17T11:18:07.491Z,11.58
2024-02-17T11:20:35.534Z,11.51
2024-02-17T11:23:03.605Z,11.36
2024-02-17T11:25:35.035Z,11.28
2024-02-17T11:28:06.817Z,11.29
2024-02-17T11:30:50.456Z,11.25
2024-02-17T11:33:23.369Z,11.37
2024-02-17T11:35:52.417Z,11.29
2024-02-17T11:38:27.064Z,11.29
2024-02-17T11:40:55.959Z,11.22
2024-02-17T11:43:24.190Z,10.90
2024-02-17T11:45:55.206Z,11.04
2024-02-17T11:48:26.191Z,11.08
2024-02-17T11:51:06.018Z,11.19
2024-02-17T11:53:34.221Z,11.35
2024-02-17T11:56:03.258Z,11.35
2024-02-17T11:58:32.066Z,11.30
2024-02-17T12:01:02.068Z,11.61
2024-02-17T12:03:30.341Z,11.77
2024-02-17T12:06:02.533Z,11.67
2024-02-17T12:08:31.396Z,11.53
2024-02-17T12:11:00.301Z,11.41
2024-02-17T12:13:28.861Z,11.33
2024-02-17T12:16:08.433Z,11.07
2024-02-17T12:18:38.710Z,11.09
2024-02-17T12:21:08.121Z,11.15
2024-02-17T12:23:37.319Z,11.34
2024-02-17T12:26:13.538Z,11.33
2024-02-17T12:28:48.705Z,11.41
2024-02-17T12:31:19.942Z,11.55
2024-02-17T12:33:49.059Z,11.46
2024-02-17T12:36:18.333Z,11.41
2024-02-17T12:38:46.457Z,11.52
2024-02-17T12:41:17.952Z,11.63
2024-02-17T12:43:55.186Z,11.53
2024-02-17T12:46:27.925Z,11.48
2024-02-17T12:48:57.014Z,11.54
2024-02-17T12:51:25.553Z,11.70
2024-02-17T12:53:53.752Z,11.85
2024-02-17T12:56:24.827Z,11.70
2024-02-17T12:58:54.056Z,11.67
2024-02-17T13:01:21.912Z,11.70
2024-02-17T13:03:51.588Z,11.84
2024-02-17T13:06:19.932Z,11.93
2024-02-17T13:08:49.601Z,12.08
2024-02-17T13:11:19.155Z,12.09
2024-02-17T13:13:47.124Z,11.83
2024-02-17T13:16:14.979Z,11.84
2024-02-17T13:18:44.038Z,12.05
2024-02-17T13:21:13.504Z,12.06
2024-02-17T13:23:41.338Z,11.90
2024-02-17T13:26:10.702Z,11.80
2024-02-17T13:28:39.413Z,11.68
2024-02-17T13:31:07.762Z,11.71
2024-02-17T13:33:36.365Z,11.69
2024-02-17T13:36:04.865Z,11.39
2024-02-17T13:38:34.110Z,11.30
2024-02-17T13:41:02.045Z,11.33
2024-02-17T13:43:29.954Z,11.49
2024-02-17T13:45:58.777Z,11.44
2024-02-17T13:48:26.871Z,11.53
2024-02-17T13:50:54.791Z,11.75
2024-02-17T13:53:22.635Z,11.53
2024-02-17T13:55:52.061Z,11.44
2024-02-17T13:58:20.537Z,11.41
2024-02-17T14:00:48.479Z,11.03
2024-02-17T14:03:17.015Z,11.01
2024-02-17T14:05:46.790Z,10.96
2024-02-17T14:08:15.560Z,10.66
2024-02-17T14:10:43.711Z,10.73
2024-02-17T14:13:13.056Z,10.65
2024-02-17T14:15:40.988Z,10.66
2024-02-17T14:18:10.601Z,10.70
2024-02-17T14:20:38.863Z,10.83
2024-02-17T14:23:06.984Z,10.80
2024-02-17T14:25:34.958Z,10.70
2024-02-17T14:28:02.925Z,10.64
2024-02-17T14:30:38.348Z,10.64
2024-02-17T14:33:07.684Z,10.65
2024-02-17T14:35:35.757Z,10.68
2024-02-17T14:38:03.665Z,10.68
2024-02-17T14:40:31.594Z,10.44
2024-02-17T14:42:59.768Z,10.37
2024-02-17T14:45:30.451Z,10.53
2024-02-17T14:48:01.368Z,10.55
2024-02-17T14:50:29.421Z,10.48
2024-02-17T14:52:58.531Z,10.37
2024-02-17T14:55:26.554Z,10.40
2024-02-17T14:57:54.571Z,10.44
2024-02-17T15:00:22.725Z,10.37
2024-02-17T15:02:51.161Z,10.34
2024-02-17T15:05:20.520Z,10.32
2024-02-17T15:07:49.364Z,10.42
2024-02-17T15:10:18.097Z,10.19
2024-02-17T15:12:46.112Z,10.29
2024-02-17T15:15:14.536Z,10.26
2024-02-17T15:17:42.641Z,10.26
2024-02-17T15:20:11.173Z,10.20
2024-02-17T15:22:40.404Z,10.12
2024-02-17T15:25:10.025Z,10.02
2024-02-17T15:27:38.093Z,9.98
2024-02-17T15:30:07.145Z,9.86
2024-02-17T15:32:35.096Z,9.79
2024-02-17T15:35:03.492Z,9.84
2024-02-17T15:37:31.460Z,10.03
2024-02-17T15:40:01.797Z,10.13
2024-02-17T15:42:30.221Z,10.22
2024-02-17T15:44:58.393Z,10.15
2024-02-17T15:47:27.126Z,10.12
2024-02-17T15:49:54.987Z,10.13
2024-02-17T15:52:22.920Z,10.06
2024-02-17T15:54:50.985Z,9.96
2024-02-17T15:57:20.435Z,9.95
2024-02-17T15:59:51.096Z,9.84
2024-02-17T16:02:18.964Z,9.79
2024-02-17T16:04:48.087Z,9.81
2024-02-17T16:07:16.963Z,9.73
2024-02-17T16:09:44.884Z,9.79
2024-02-17T16:12:12.865Z,9.69
2024-02-17T16:14:42.269Z,9.65
2024-02-17T16:17:10.160Z,9.64
2024-02-17T16:19:38.146Z,9.73
2024-02-17T16:22:06.414Z,9.68
2024-02-17T16:24:34.692Z,9.68
2024-02-17T16:27:04.210Z,9.59
2024-02-17T16:29:32.416Z,9.57
2024-02-17T16:32:02.267Z,9.49
2024-02-17T16:34:30.894Z,9.56
2024-02-17T16:36:58.999Z,9.41
2024-02-17T16:39:27.060Z,9.51
2024-02-17T16:41:55.042Z,9.58
2024-02-17T16:44:23.578Z,9.65
2024-02-17T16:46:54.206Z,9.66
2024-02-17T16:49:23.684Z,9.58
2024-02-17T16:51:52.631Z,9.51
2024-02-17T16:54:20.748Z,9.47
2024-02-17T16:56:48.688Z,9.51
2024-02-17T16:59:16.588Z,9.59
2024-02-17T17:01:44.469Z,9.44
2024-02-17T17:04:12.551Z,9.41
2024-02-17T17:06:42.051Z,9.48
2024-02-17T17:09:10.730Z,9.53
2024-02-17T17:11:38.750Z,9.52
2024-02-17T17:14:06.653Z,9.47
2024-02-17T17:16:34.592Z,9.56
2024-02-17T17:19:02.684Z,9.51
2024-02-17T17:21:30.756Z,9.50
2024-02-17T17:24:00.075Z,9.57
2024-02-17T17:26:39.880Z,9.66
2024-02-17T17:29:16.031Z,9.72
2024-02-17T17:31:44.101Z,9.65
2024-02-17T17:34:12.093Z,9.65
2024-02-17T17:36:42.141Z,9.66
2024-02-17T17:39:11.663Z,9.58
2024-02-17T17:41:39.821Z,9.45
2024-02-17T17:44:07.870Z,9.43
2024-02-17T17:46:35.783Z,9.43
2024-02-17T17:49:06.558Z,9.21
2024-02-17T17:51:34.541Z,9.08
2024-02-17T17:54:02.655Z,8.98
2024-02-17T17:56:32.030Z,8.84
2024-02-17T17:59:00.199Z,8.84
2024-02-17T18:01:27.370Z,8.83
2024-02-17T18:03:55.520Z,8.83
2024-02-17T18:06:23.915Z,8.78
2024-02-17T18:08:52.198Z,8.74
2024-02-17T18:11:20.874Z,8.76
2024-02-17T18:13:50.185Z,8.70
2024-02-17T18:16:18.414Z,8.60
2024-02-17T18:18:46.480Z,8.56
2024-02-17T18:21:16.578Z,8.50
2024-02-17T18:23:44.624Z,8.45
2024-02-17T18:26:13.894Z,8.42
2024-02-17T18:28:41.781Z,8.36
2024-02-17T18:31:12.255Z,8.40
2024-02-17T18:33:44.217Z,8.35
2024-02-17T18:36:16.791Z,8.35
2024-02-17T18:38:45.393Z,8.37
2024-02-17T18:41:14.580Z,8.30
2024-02-17T18:43:43.895Z,8.26
2024-02-17T18:46:16.568Z,8.21
2024-02-17T18:48:44.806Z,8.17
2024-02-17T18:51:17.719Z,8.18
2024-02-17T18:53:46.615Z,8.12
2024-02-17T18:56:16.349Z,8.15
2024-02-17T18:58:49.420Z,8.04
2024-02-17T19:01:19.176Z,8.01
2024-02-17T19:03:51.361Z,8.05
2024-02-17T19:06:19.785Z,8.00
2024-02-17T19:08:48.661Z,8.03
2024-02-17T19:11:19.090Z,7.98
2024-02-17T19:13:48.497Z,8.05
2024-02-17T19:16:18.184Z,8.05
2024-02-17T19:18:50.370Z,8.13
2024-02-17T19:21:18.561Z,8.20
2024-02-17T19:23:46.550Z,8.32
2024-02-17T19:26:14.574Z,8.38
2024-02-17T19:28:42.475Z,8.36
2024-02-17T19:31:10.520Z,8.39
2024-02-17T19:33:38.841Z,8.44
2024-02-17T19:36:10.995Z,8.50
2024-02-17T19:38:39.452Z,8.42
2024-02-17T19:41:08.604Z,8.49
2024-02-17T19:43:36.982Z,8.51
2024-02-17T19:46:05.324Z,8.54
2024-02-17T19:48:33.555Z,8.55
2024-02-17T19:51:01.895Z,8.55
2024-02-17T19:53:31.236Z,8.64
2024-02-17T19:55:59.179Z,8.62
2024-02-17T19:58:27.967Z,8.59
2024-02-17T20:00:56.045Z,8.63
2024-02-17T20:03:29.295Z,8.68
2024-02-17T20:05:57.423Z,8.70
2024-02-17T20:08:25.756Z,8.75
2024-02-17T20:10:55.190Z,8.72
2024-02-17T20:13:23.435Z,8.72
2024-02-17T20:15:53.607Z,8.71
2024-02-17T20:18:23.784Z,8.77
2024-02-17T20:20:54.788Z,8.70
2024-02-17T20:23:22.708Z,8.70
2024-02-17T20:25:50.718Z,8.67
2024-02-17T20:28:26.150Z,8.55
2024-02-17T20:30:54.396Z,8.53
2024-02-17T20:33:23.756Z,8.54
2024-02-17T20:35:51.863Z,8.48
2024-02-17T20:38:19.991Z,8.52
2024-02-17T20:40:47.922Z,8.47
2024-02-17T20:43:15.962Z,8.34
2024-02-17T20:45:47.910Z,8.24
2024-02-17T20:48:16.125Z,8.21
2024-02-17T20:50:44.127Z,8.16
2024-02-17T20:53:12.770Z,8.07
2024-02-17T20:55:40.766Z,8.11
2024-02-17T20:58:09.089Z,8.06
2024-02-17T21:00:37.493Z,8.01
2024-02-17T21:03:07.684Z,7.96
2024-02-17T21:05:35.635Z,7.92
2024-02-17T21:08:03.789Z,7.96
2024-02-17T21:10:31.686Z,7.96
2024-02-17T21:12:59.617Z,7.86
2024-02-17T21:15:27.994Z,7.78
2024-02-17T21:17:56.058Z,7.69
2024-02-17T21:20:25.370Z,7.67
2024-02-17T21:22:53.300Z,7.69
2024-02-17T21:25:22.028Z,7.65
2024-02-17T21:27:51.333Z,7.59
2024-02-17T21:30:19.990Z,7.49
2024-02-17T21:32:48.332Z,7.49
2024-02-17T21:35:16.471Z,7.46
2024-02-17T21:37:45.946Z,7.48
2024-02-17T21:40:17.324Z,7.44
2024-02-17T21:42:45.370Z,7.37
2024-02-17T21:45:14.198Z,7.35
2024-02-17T21:47:42.288Z,7.29
2024-02-17T21:50:11.578Z,7.22
2024-02-17T21:52:39.599Z,7.29
2024-02-17T21:55:09.975Z,7.24
2024-02-17T21:57:38.041Z,7.24
2024-02-17T22:00:06.717Z,7.28
2024-02-17T22:02:34.556Z,7.16
2024-02-17T22:05:02.606Z,7.07
2024-02-17T22:07:31.943Z,6.99
2024-02-17T22:10:00.065Z,6.94
2024-02-17T22:12:30.304Z,6.88
2024-02-17T22:14:58.797Z,6.89
2024-02-17T22:17:28.734Z,6.84
2024-02-17T22:19:57.101Z,6.80
2024-02-17T22:22:25.963Z,6.81
2024-02-17T22:24:53.952Z,6.81
2024-02-17T22:27:21.998Z,6.81
2024-02-17T22:29:51.314Z,6.72
2024-02-17T22:32:19.426Z,6.75
2024-02-17T22:34:47.405Z,6.72
2024-02-17T22:37:16.425Z,6.76
2024-02-17T22:39:44.301Z,6.77
2024-02-17T22:42:12.603Z,6.72
2024-02-17T22:44:40.719Z,6.71
2024-02-17T22:47:10.602Z,6.68
2024-02-17T22:49:38.532Z,6.63
2024-02-17T22:52:06.908Z,6.62
2024-02-17T22:54:35.276Z,6.56
2024-02-17T22:57:03.943Z,6.55
2024-02-17T22:59:31.930Z,6.51
2024-02-17T23:02:00.017Z,6.48
2024-02-17T23:04:29.324Z,6.52
2024-02-17T23:06:57.347Z,6.52
2024-02-17T23:09:25.335Z,6.46
2024-02-17T23:11:53.413Z,6.44
2024-02-17T23:14:21.452Z,6.44
2024-02-17T23:16:49.348Z,6.48
2024-02-17T23:19:17.307Z,6.45
2024-02-17T23:21:47.848Z,6.40
2024-02-17T23:24:16.298Z,6.36
2024-02-17T23:26:45.348Z,6.38
2024-02-17T23:29:14.143Z,6.38
2024-02-17T23:31:43.826Z,6.34
2024-02-17T23:34:12.188Z,6.19
2024-02-17T23:36:40.541Z,6.18
2024-02-17T23:39:09.844Z,6.19
2024-02-17T23:41:39.604Z,6.21
2024-02-17T23:44:07.643Z,6.10
2024-02-17T23:46:35.539Z,6.10
2024-02-17T23:49:03.822Z,5.97
2024-02-17T23:51:32.193Z,6.01
2024-02-17T23:54:00.136Z,6.07
2024-02-17T23:56:29.626Z,5.96
2024-02-17T23:58:57.536Z,5.95
